Time;durP1;ratioP1;P1;durP2;ratioP2;P2;SDS_P1;SDS_P2;PMS_P1;PMS_P2;Temp;Humidity;BMP_temperature;BMP_pressure;BME280_temperature;BME280_humidity;BME280_pressure;Samples;Min_cycle;Max_cycle;Signal;HPM_P1;HPM_P2
2023/04/30 00:00:19;;;;;;;16.20;11.10;;;6.40;99.90;;;;;;5083524;28;20067;-69
2023/04/30 00:02:45;;;;;;;24.23;12.52;;;6.40;99.90;;;;;;5108310;27;20056;-69
2023/04/30 00:05:10;;;;;;;21.63;10.82;;;6.40;99.90;;;;;;5085845;28;20248;-69
2023/04/30 00:07:40;;;;;;;18.27;11.20;;;6.30;99.90;;;;;;5084198;28;20037;-69
2023/04/30 00:10:08;;;;;;;20.70;11.15;;;6.30;99.90;;;;;;5087902;28;20547;-69
2023/04/30 00:12:34;;;;;;;20.53;12.53;;;6.30;99.90;;;;;;5085754;28;20483;-69
2023/04/30 00:15:00;;;;;;;18.95;10.95;;;6.30;99.90;;;;;;5081108;28;20303;-69
2023/04/30 00:17:26;;;;;;;20.45;11.30;;;6.30;99.90;;;;;;5078075;28;20032;-69
2023/04/30 00:19:52;;;;;;;17.17;10.90;;;6.20;99.90;;;;;;5074167;28;20040;-69
2023/04/30 00:22:18;;;;;;;23.85;12.00;;;6.20;99.90;;;;;;5075587;28;20516;-69
2023/04/30 00:24:44;;;;;;;18.20;11.93;;;6.20;99.90;;;;;;5074062;28;20044;-69
2023/04/30 00:27:09;;;;;;;29.65;14.93;;;6.20;99.90;;;;;;5076087;28;20048;-69
2023/04/30 00:29:36;;;;;;;14.23;12.02;;;6.20;99.90;;;;;;5080537;28;20072;-69
2023/04/30 00:32:02;;;;;;;23.88;13.63;;;6.10;99.90;;;;;;5082643;28;20069;-69
2023/04/30 00:34:28;;;;;;;23.85;12.80;;;6.10;99.90;;;;;;5088330;28;20048;-69
2023/04/30 00:36:53;;;;;;;22.02;14.20;;;6.10;99.90;;;;;;5075906;28;20059;-69
2023/04/30 00:39:19;;;;;;;20.90;11.52;;;6.10;99.90;;;;;;5073674;28;20036;-69
2023/04/30 00:41:45;;;;;;;20.75;12.25;;;6.10;99.90;;;;;;5105058;27;20036;-69
2023/04/30 00:44:10;;;;;;;29.33;11.68;;;6.00;99.90;;;;;;5086404;28;20048;-69
2023/04/30 00:46:36;;;;;;;14.50;11.52;;;6.00;99.90;;;;;;5087101;28;20135;-69
2023/04/30 00:49:03;;;;;;;17.67;10.90;;;6.00;99.90;;;;;;5085321;28;20044;-69
2023/04/30 00:51:31;;;;;;;14.38;11.23;;;6.00;99.90;;;;;;5084560;28;20051;-69
2023/04/30 00:54:00;;;;;;;19.23;11.23;;;6.00;99.90;;;;;;5078265;28;20053;-69
2023/04/30 00:56:25;;;;;;;17.35;12.18;;;5.90;99.90;;;;;;5075478;28;20033;-69
2023/04/30 00:58:55;;;;;;;20.52;12.15;;;5.80;99.90;;;;;;5075862;28;20146;-69
2023/04/30 01:01:27;;;;;;;22.50;12.63;;;5.80;99.90;;;;;;5089264;28;20052;-69
2023/04/30 01:03:54;;;;;;;17.90;11.57;;;5.80;99.90;;;;;;5081264;28;20066;-68
2023/04/30 01:06:20;;;;;;;17.75;11.27;;;5.80;99.90;;;;;;5080808;28;20059;-69
2023/04/30 01:08:46;;;;;;;16.95;11.55;;;5.80;99.90;;;;;;5084931;28;20040;-69
2023/04/30 01:11:40;;;;;;;24.65;12.75;;;5.80;99.90;;;;;;5081422;28;20713;-69
2023/04/30 01:14:27;;;;;;;16.52;11.55;;;5.80;99.90;;;;;;5078895;28;20638;-69
2023/04/30 01:17:05;;;;;;;19.02;12.63;;;5.70;99.90;;;;;;5072802;28;20040;-69
2023/04/30 01:19:46;;;;;;;18.23;11.43;;;5.60;99.90;;;;;;5083639;28;20040;-69
2023/04/30 01:22:38;;;;;;;16.98;12.80;;;5.70;99.90;;;;;;5084243;28;20117;-69
2023/04/30 01:25:18;;;;;;;16.88;11.20;;;5.60;99.90;;;;;;5080010;28;20053;-69
2023/04/30 01:28:05;;;;;;;12.20;9.93;;;5.50;99.90;;;;;;5085214;28;20044;-68
2023/04/30 01:30:31;;;;;;;14.80;11.13;;;5.50;99.90;;;;;;5070389;28;20049;-69
2023/04/30 01:32:58;;;;;;;15.35;10.45;;;5.50;99.90;;;;;;5074171;28;20182;-69
2023/04/30 01:35:45;;;;;;;21.73;13.40;;;5.50;99.90;;;;;;5084434;28;20138;-69
2023/04/30 01:38:25;;;;;;;15.85;12.07;;;5.40;99.90;;;;;;5083091;28;20756;-69
2023/04/30 01:41:18;;;;;;;16.52;11.13;;;5.40;99.90;;;;;;5077258;28;20052;-69
2023/04/30 01:44:17;;;;;;;18.17;11.02;;;5.40;99.90;;;;;;5083854;28;20044;-69
2023/04/30 01:46:53;;;;;;;22.20;11.23;;;5.30;99.90;;;;;;5087321;28;20052;-69
2023/04/30 01:50:04;;;;;;;16.38;11.43;;;5.30;99.90;;;;;;5086519;28;20044;-69
2023/04/30 01:52:45;;;;;;;14.95;10.80;;;5.40;99.90;;;;;;4994290;28;20070;-68
2023/04/30 01:55:17;;;;;;;18.33;10.18;;;5.30;99.90;;;;;;5001867;28;20204;-69
2023/04/30 01:58:09;;;;;;;17.05;10.45;;;5.30;99.90;;;;;;5052663;28;20108;-69
2023/04/30 02:00:35;;;;;;;18.73;11.88;;;5.30;99.90;;;;;;5080845;28;20128;-69
2023/04/30 02:03:01;;;;;;;21.73;10.63;;;5.20;99.90;;;;;;5085879;28;20500;-69
2023/04/30 02:05:26;;;;;;;15.50;11.07;;;5.20;99.90;;;;;;5086993;28;20093;-69
2023/04/30 02:07:53;;;;;;;14.95;11.48;;;5.20;99.90;;;;;;5081613;28;20076;-69
2023/04/30 02:10:24;;;;;;;17.77;10.98;;;5.10;99.90;;;;;;5085485;28;20110;-68
2023/04/30 02:12:49;;;;;;;16.73;12.23;;;5.10;99.90;;;;;;5083070;28;20040;-68
2023/04/30 02:15:15;;;;;;;17.63;10.57;;;5.10;99.90;;;;;;5084753;28;20036;-68
2023/04/30 02:17:41;;;;;;;16.17;10.48;;;5.10;99.90;;;;;;5085505;28;20573;-68
2023/04/30 02:20:08;;;;;;;13.45;10.07;;;5.10;99.90;;;;;;5080963;28;20052;-69
2023/04/30 02:22:34;;;;;;;15.07;10.45;;;5.00;99.90;;;;;;5082721;28;20114;-68
2023/04/30 02:25:00;;;;;;;17.85;12.07;;;5.00;99.90;;;;;;5078011;28;20079;-68
2023/04/30 02:27:28;;;;;;;18.90;10.95;;;5.00;99.90;;;;;;5077018;28;20552;-68
2023/04/30 02:29:55;;;;;;;25.70;11.48;;;5.00;99.90;;;;;;5076580;28;20047;-69
2023/04/30 02:32:21;;;;;;;11.77;10.30;;;4.90;99.90;;;;;;5077565;28;20064;-68
2023/04/30 02:34:46;;;;;;;13.30;10.25;;;4.90;99.90;;;;;;5080057;28;20044;-68
2023/04/30 02:37:12;;;;;;;13.60;10.07;;;4.90;99.90;;;;;;5085242;28;20818;-68
2023/04/30 02:39:37;;;;;;;16.02;10.52;;;4.90;99.90;;;;;;5076662;28;20036;-68
2023/04/30 02:42:05;;;;;;;14.40;9.70;;;4.90;99.90;;;;;;5080424;28;20103;-68
2023/04/30 02:44:37;;;;;;;13.13;10.60;;;4.80;99.90;;;;;;5079176;28;20086;-68
2023/04/30 02:47:02;;;;;;;33.45;11.57;;;4.80;99.90;;;;;;5082268;28;20345;-68
2023/04/30 02:49:28;;;;;;;13.23;10.73;;;4.80;99.90;;;;;;5070855;28;20516;-68
2023/04/30 02:51:54;;;;;;;12.80;11.05;;;4.80;99.90;;;;;;5074666;28;20121;-68
2023/04/30 02:54:20;;;;;;;12.10;9.57;;;4.80;99.90;;;;;;5078708;28;20109;-68
2023/04/30 02:56:46;;;;;;;22.23;11.68;;;4.80;99.90;;;;;;5078684;28;20193;-68
2023/04/30 02:59:12;;;;;;;20.88;11.98;;;4.70;99.90;;;;;;5077856;28;20047;-68
2023/04/30 03:01:37;;;;;;;15.57;12.18;;;4.70;99.90;;;;;;5082655;28;20497;-68
2023/04/30 03:04:03;;;;;;;17.42;12.40;;;4.70;99.90;;;;;;5080189;28;20051;-68
2023/04/30 03:06:30;;;;;;;16.13;11.80;;;4.70;99.90;;;;;;5083445;28;20146;-68
2023/04/30 03:08:56;;;;;;;15.43;12.93;;;4.70;99.90;;;;;;5078723;28;20055;-68
2023/04/30 03:11:22;;;;;;;18.88;12.57;;;4.60;99.90;;;;;;5084675;28;20607;-68
2023/04/30 03:13:50;;;;;;;12.95;10.07;;;4.60;99.90;;;;;;5080173;28;20081;-68
2023/04/30 03:16:18;;;;;;;12.93;9.77;;;4.60;99.90;;;;;;5068467;28;20051;-69
2023/04/30 03:18:45;;;;;;;13.88;9.68;;;4.50;99.90;;;;;;5085062;28;20040;-68
2023/04/30 03:21:12;;;;;;;12.85;9.27;;;4.50;99.90;;;;;;5083004;28;20056;-68
2023/04/30 03:23:37;;;;;;;14.50;10.35;;;4.40;99.90;;;;;;5078860;28;20497;-68
2023/04/30 03:26:04;;;;;;;14.60;10.60;;;4.40;99.90;;;;;;5084533;28;20048;-68
2023/04/30 03:28:30;;;;;;;17.98;12.27;;;4.40;99.90;;;;;;5084039;28;20047;-68
2023/04/30 03:30:58;;;;;;;16.27;11.13;;;4.40;99.90;;;;;;5084561;28;20045;-68
2023/04/30 03:33:23;;;;;;;15.20;11.25;;;4.40;99.90;;;;;;5078605;28;20505;-68
2023/04/30 03:35:50;;;;;;;13.27;11.52;;;4.30;99.90;;;;;;5084022;28;20093;-68
2023/04/30 03:38:16;;;;;;;10.38;9.35;;;4.30;99.90;;;;;;5085363;28;20117;-68
2023/04/30 03:40:42;;;;;;;10.93;7.25;;;4.30;99.90;;;;;;5083361;28;20431;-68
2023/04/30 03:43:07;;;;;;;8.52;6.82;;;4.30;99.90;;;;;;5086165;28;20032;-68
2023/04/30 03:45:33;;;;;;;17.08;8.50;;;4.30;99.90;;;;;;5084310;28;20040;-68
2023/04/30 03:47:59;;;;;;;10.65;9.00;;;4.20;99.90;;;;;;5074101;28;20487;-68
2023/04/30 03:50:26;;;;;;;13.20;8.65;;;4.20;99.90;;;;;;5077608;28;20098;-68
2023/04/30 03:52:52;;;;;;;10.97;8.70;;;4.20;99.90;;;;;;5076745;28;20075;-68
2023/04/30 03:55:18;;;;;;;13.93;8.45;;;4.20;99.90;;;;;;5074452;28;20912;-68
2023/04/30 03:57:43;;;;;;;12.65;10.07;;;4.20;99.90;;;;;;5076942;28;20048;-68
2023/04/30 04:00:10;;;;;;;14.75;9.70;;;4.20;99.90;;;;;;5076788;28;20052;-68
2023/04/30 04:02:36;;;;;;;17.92;10.68;;;4.20;99.90;;;;;;5076658;28;20470;-68
2023/04/30 04:05:03;;;;;;;14.60;11.55;;;4.20;99.90;;;;;;5082055;28;20044;-68
2023/04/30 04:07:29;;;;;;;18.73;13.02;;;4.20;99.90;;;;;;5080231;28;20040;-68
2023/04/30 04:09:55;;;;;;;19.60;12.82;;;4.20;99.90;;;;;;5079930;28;20037;-68
2023/04/30 04:12:21;;;;;;;16.83;11.10;;;4.20;99.90;;;;;;5078575;28;20659;-68
2023/04/30 04:14:47;;;;;;;13.85;10.88;;;4.20;99.90;;;;;;5077725;28;20052;-68
2023/04/30 04:17:13;;;;;;;13.80;11.55;;;4.20;99.90;;;;;;5078223;28;20056;-68
2023/04/30 04:19:39;;;;;;;17.60;12.30;;;4.20;99.90;;;;;;5076968;28;20394;-68
2023/04/30 04:22:05;;;;;;;26.40;14.18;;;4.30;99.90;;;;;;5079280;28;20055;-68
2023/04/30 04:24:32;;;;;;;20.90;14.15;;;4.30;99.90;;;;;;5079138;28;20068;-68
2023/04/30 04:26:58;;;;;;;27.77;14.85;;;4.20;99.90;;;;;;5081829;28;20040;-68
2023/04/30 04:29:24;;;;;;;21.77;14.82;;;4.30;99.90;;;;;;5078874;28;20040;-68
2023/04/30 04:31:50;;;;;;;19.95;15.23;;;4.30;99.90;;;;;;5078252;28;20048;-68
2023/04/30 04:34:16;;;;;;;20.80;15.35;;;4.30;99.90;;;;;;5077105;28;20040;-68
2023/04/30 04:36:43;;;;;;;29.42;16.60;;;4.40;99.90;;;;;;5077988;28;20036;-68
2023/04/30 04:39:08;;;;;;;21.73;17.02;;;4.40;99.90;;;;;;5073431;28;20040;-68
2023/04/30 04:41:35;;;;;;;18.95;14.93;;;4.50;99.90;;;;;;5072971;28;20043;-68
2023/04/30 04:44:02;;;;;;;19.13;15.75;;;4.50;99.90;;;;;;5071984;28;20048;-69
2023/04/30 04:46:29;;;;;;;17.83;14.65;;;4.60;99.90;;;;;;5077999;28;20047;-68
2023/04/30 04:48:54;;;;;;;15.63;13.50;;;4.70;99.90;;;;;;5075093;28;20413;-68
2023/04/30 04:51:20;;;;;;;14.95;12.48;;;4.70;99.90;;;;;;5075431;28;20044;-68
2023/04/30 04:53:47;;;;;;;18.50;15.77;;;4.80;99.90;;;;;;5073607;28;20134;-68
2023/04/30 04:56:14;;;;;;;16.83;14.50;;;4.80;99.90;;;;;;5072929;28;20123;-68
2023/04/30 04:58:41;;;;;;;19.60;14.52;;;4.80;99.90;;;;;;5073909;28;20310;-69
2023/04/30 05:01:08;;;;;;;21.92;14.85;;;4.90;99.90;;;;;;5072689;28;20043;-69
2023/04/30 05:03:37;;;;;;;16.73;12.90;;;5.20;99.90;;;;;;5072982;28;20036;-68
2023/04/30 05:06:03;;;;;;;20.45;14.15;;;6.00;99.90;;;;;;5076384;28;20129;-68
2023/04/30 05:08:29;;;;;;;17.38;13.77;;;6.70;99.90;;;;;;5071677;28;20044;-69
2023/04/30 05:10:55;;;;;;;20.98;14.15;;;7.60;99.90;;;;;;5075377;28;20052;-69
2023/04/30 05:13:20;;;;;;;22.20;13.85;;;8.50;99.90;;;;;;5070346;28;20047;-69
2023/04/30 05:15:50;;;;;;;21.15;16.23;;;9.00;99.90;;;;;;5073697;28;20569;-69
2023/04/30 05:18:15;;;;;;;21.63;15.93;;;9.40;99.90;;;;;;5075497;28;20459;-69
2023/04/30 05:20:41;;;;;;;30.42;19.63;;;9.90;99.90;;;;;;5073949;28;20046;-69
2023/04/30 05:23:07;;;;;;;23.75;17.67;;;9.90;99.90;;;;;;5074933;28;20044;-69
2023/04/30 05:25:32;;;;;;;26.58;18.63;;;10.10;99.90;;;;;;5073224;28;20075;-69
2023/04/30 05:27:58;;;;;;;22.88;15.85;;;10.40;99.90;;;;;;5072509;28;20047;-69
2023/04/30 05:30:24;;;;;;;27.85;15.55;;;10.70;99.90;;;;;;5076350;28;20036;-69
2023/04/30 05:32:51;;;;;;;21.70;14.93;;;10.80;99.90;;;;;;5079185;28;20062;-69
2023/04/30 05:35:18;;;;;;;18.92;13.32;;;10.70;99.90;;;;;;5079836;28;20044;-69
2023/04/30 05:37:45;;;;;;;16.50;12.10;;;10.70;99.90;;;;;;5077049;28;20060;-69
2023/04/30 05:40:11;;;;;;;14.63;12.43;;;10.60;99.90;;;;;;5076866;28;20048;-69
2023/04/30 05:42:39;;;;;;;14.90;11.68;;;10.50;99.90;;;;;;5076311;28;20405;-69
2023/04/30 05:45:06;;;;;;;21.83;13.05;;;10.60;99.90;;;;;;5075091;28;20051;-69
2023/04/30 05:47:31;;;;;;;17.48;12.63;;;10.50;99.90;;;;;;5072819;28;20097;-69
2023/04/30 05:49:57;;;;;;;16.05;11.38;;;10.20;99.90;;;;;;5052290;28;20052;-69
2023/04/30 05:52:23;;;;;;;24.35;13.18;;;9.70;99.90;;;;;;5074771;28;20642;-69
2023/04/30 05:54:49;;;;;;;33.03;12.40;;;9.40;99.90;;;;;;5076257;28;20539;-69
2023/04/30 05:57:15;;;;;;;19.17;12.95;;;9.30;99.90;;;;;;5074605;28;20113;-69
2023/04/30 05:59:41;;;;;;;29.58;13.43;;;9.10;99.90;;;;;;5073649;28;20044;-69
2023/04/30 06:02:08;;;;;;;19.35;12.57;;;8.80;99.90;;;;;;5072373;28;20048;-69
2023/04/30 06:04:35;;;;;;;28.58;12.38;;;8.70;99.90;;;;;;5074398;28;20052;-69
2023/04/30 06:07:01;;;;;;;19.48;13.13;;;8.60;99.90;;;;;;5072582;28;20121;-69
2023/04/30 06:09:26;;;;;;;17.05;12.95;;;8.70;99.90;;;;;;5072275;28;20570;-69
2023/04/30 06:11:52;;;;;;;25.63;13.07;;;8.60;99.90;;;;;;5054635;28;20857;-69
2023/04/30 06:14:19;;;;;;;19.58;12.38;;;8.60;99.90;;;;;;5056082;28;20036;-69
2023/04/30 06:16:45;;;;;;;23.52;13.35;;;8.50;99.90;;;;;;5078811;28;20039;-69
2023/04/30 06:19:13;;;;;;;19.45;13.15;;;8.50;99.90;;;;;;5077329;28;20043;-69
2023/04/30 06:21:39;;;;;;;25.85;14.40;;;8.30;99.90;;;;;;5101377;27;20945;-69
2023/04/30 06:24:05;;;;;;;34.03;12.43;;;8.20;99.90;;;;;;5068226;28;20048;-69
2023/04/30 06:26:33;;;;;;;23.80;13.05;;;8.10;99.90;;;;;;5065958;28;20134;-69
2023/04/30 06:29:00;;;;;;;29.85;13.15;;;8.10;99.90;;;;;;5068253;28;20044;-69
2023/04/30 06:31:26;;;;;;;25.40;13.57;;;8.00;99.90;;;;;;5066532;28;20032;-70
2023/04/30 06:33:52;;;;;;;27.75;13.27;;;8.00;99.90;;;;;;5068165;28;20059;-69
2023/04/30 06:36:18;;;;;;;30.38;13.77;;;8.00;99.90;;;;;;5064364;28;20032;-69
2023/04/30 06:38:46;;;;;;;32.25;14.48;;;8.00;99.90;;;;;;5063598;28;20048;-68
2023/04/30 06:41:12;;;;;;;22.63;13.48;;;8.00;99.90;;;;;;5064546;28;20040;-69
2023/04/30 06:43:38;;;;;;;29.30;14.88;;;8.10;99.90;;;;;;5063308;28;20047;-69
2023/04/30 06:46:08;;;;;;;27.30;12.73;;;8.20;99.90;;;;;;5043921;28;20048;-69
2023/04/30 06:48:33;;;;;;;19.88;11.65;;;8.20;99.90;;;;;;5063538;28;20036;-69
2023/04/30 06:50:59;;;;;;;21.33;11.63;;;8.40;99.90;;;;;;5062772;28;20115;-69
2023/04/30 06:53:25;;;;;;;21.75;12.07;;;8.50;99.90;;;;;;5064043;28;20060;-69
2023/04/30 06:55:52;;;;;;;26.52;10.73;;;8.60;99.90;;;;;;5062562;28;20048;-69
2023/04/30 06:58:18;;;;;;;15.48;8.73;;;8.70;99.90;;;;;;5064217;28;20055;-69
2023/04/30 07:00:44;;;;;;;19.65;10.30;;;8.90;99.90;;;;;;5062904;28;20078;-69
2023/04/30 07:03:10;;;;;;;21.33;8.00;;;9.20;99.90;;;;;;5061876;28;20139;-69
2023/04/30 07:05:35;;;;;;;32.47;9.52;;;9.40;99.90;;;;;;5060679;28;20036;-69
2023/04/30 07:08:02;;;;;;;16.42;8.52;;;9.50;99.90;;;;;;5061746;28;20233;-69
2023/04/30 07:10:28;;;;;;;20.42;7.95;;;9.50;99.90;;;;;;5064482;28;20040;-70
2023/04/30 07:12:55;;;;;;;13.23;7.57;;;9.60;99.90;;;;;;5065988;28;20083;-69
2023/04/30 07:15:21;;;;;;;22.95;8.57;;;9.70;99.90;;;;;;5060317;28;21008;-69
2023/04/30 07:17:46;;;;;;;19.63;8.10;;;9.70;99.90;;;;;;5058378;28;20044;-70
2023/04/30 07:20:15;;;;;;;21.55;8.02;;;9.90;99.90;;;;;;5062739;28;20079;-70
2023/04/30 07:22:43;;;;;;;20.27;7.22;;;9.90;99.90;;;;;;5063449;28;20409;-69
2023/04/30 07:25:10;;;;;;;16.00;7.85;;;10.00;99.90;;;;;;5061605;28;20049;-70
2023/04/30 07:27:36;;;;;;;24.70;9.02;;;10.10;99.90;;;;;;5063901;28;20052;-69
2023/04/30 07:30:04;;;;;;;13.38;7.70;;;10.10;99.90;;;;;;5095547;28;21581;-69
2023/04/30 07:32:29;;;;;;;15.10;8.30;;;10.20;99.90;;;;;;5064506;28;20051;-70
2023/04/30 07:34:55;;;;;;;22.63;9.02;;;10.30;99.90;;;;;;5064159;28;20052;-69
2023/04/30 07:37:21;;;;;;;13.13;7.50;;;10.30;99.90;;;;;;5066651;28;20047;-70
2023/04/30 07:39:48;;;;;;;14.18;7.07;;;10.30;99.90;;;;;;5065074;28;20044;-70
2023/04/30 07:42:14;;;;;;;22.58;7.43;;;10.30;99.90;;;;;;5068106;28;20053;-70
2023/04/30 07:44:40;;;;;;;17.10;8.68;;;10.40;99.90;;;;;;5065264;28;20358;-70
2023/04/30 07:47:06;;;;;;;23.25;8.15;;;10.50;99.90;;;;;;5067106;28;20075;-69
2023/04/30 07:49:32;;;;;;;15.25;8.05;;;10.60;99.90;;;;;;5068241;28;20048;-70
2023/04/30 07:51:59;;;;;;;10.23;6.35;;;10.70;99.90;;;;;;5066872;28;20051;-70
2023/04/30 07:54:25;;;;;;;16.45;7.20;;;10.60;99.90;;;;;;5067148;28;20151;-69
2023/04/30 07:56:52;;;;;;;23.40;7.13;;;10.60;99.90;;;;;;5069087;28;20630;-69
2023/04/30 07:59:20;;;;;;;22.80;8.70;;;10.60;99.90;;;;;;5065680;28;20056;-69
2023/04/30 08:01:46;;;;;;;21.17;9.02;;;10.70;99.90;;;;;;5065394;28;20039;-69
2023/04/30 08:04:11;;;;;;;21.63;8.25;;;10.60;99.90;;;;;;5065548;28;20101;-70
2023/04/30 08:06:37;;;;;;;16.50;7.65;;;10.50;99.90;;;;;;5064280;28;20048;-69
2023/04/30 08:09:03;;;;;;;18.30;8.00;;;10.60;99.90;;;;;;5065927;28;20181;-69
2023/04/30 08:11:29;;;;;;;17.75;7.75;;;10.60;99.90;;;;;;5066732;28;20046;-69
2023/04/30 08:13:54;;;;;;;11.40;7.07;;;10.70;99.90;;;;;;5064999;28;20044;-69
2023/04/30 08:16:20;;;;;;;15.70;7.25;;;10.70;99.90;;;;;;5062221;28;20167;-69
2023/04/30 08:18:48;;;;;;;28.08;8.05;;;10.80;99.90;;;;;;5096338;27;20443;-69
2023/04/30 08:21:14;;;;;;;16.92;8.10;;;10.80;99.90;;;;;;5064644;28;20453;-69
2023/04/30 08:23:40;;;;;;;10.18;7.82;;;10.80;99.90;;;;;;5063525;28;20048;-69
2023/04/30 08:26:05;;;;;;;19.15;7.85;;;10.90;99.90;;;;;;5064515;28;21275;-69
2023/04/30 08:28:31;;;;;;;23.48;8.48;;;10.80;99.90;;;;;;5065686;28;20040;-69
2023/04/30 08:30:57;;;;;;;20.10;8.18;;;10.90;99.90;;;;;;5064713;28;20080;-69
2023/04/30 08:33:22;;;;;;;15.07;8.82;;;11.00;99.90;;;;;;5066394;28;20056;-69
2023/04/30 08:35:48;;;;;;;18.20;8.55;;;10.90;99.90;;;;;;5064176;28;20502;-69
2023/04/30 08:38:13;;;;;;;14.77;7.97;;;11.00;99.90;;;;;;5067333;28;20036;-68
2023/04/30 08:40:40;;;;;;;18.60;8.60;;;11.10;99.90;;;;;;5064523;28;20047;-69
2023/04/30 08:43:08;;;;;;;18.73;7.68;;;11.20;99.90;;;;;;5067015;28;20044;-69
2023/04/30 08:45:35;;;;;;;13.43;8.70;;;11.30;99.90;;;;;;5066174;28;20051;-69
2023/04/30 08:48:03;;;;;;;11.07;7.27;;;11.50;99.90;;;;;;5065537;28;20083;-69
2023/04/30 08:50:29;;;;;;;21.35;9.10;;;11.50;99.90;;;;;;5065196;28;20422;-69
2023/04/30 08:52:57;;;;;;;22.33;8.20;;;11.60;99.90;;;;;;5065387;28;20056;-68
2023/04/30 08:55:25;;;;;;;13.32;8.25;;;11.70;99.90;;;;;;5057089;28;20047;-71
2023/04/30 08:57:51;;;;;;;18.65;9.43;;;11.80;99.90;;;;;;5064164;28;20071;-69
2023/04/30 09:00:17;;;;;;;14.98;8.45;;;12.00;99.90;;;;;;5065729;28;20079;-69
2023/04/30 09:02:45;;;;;;;12.88;7.70;;;11.90;99.90;;;;;;5065354;28;20032;-70
2023/04/30 09:05:13;;;;;;;16.70;7.40;;;11.90;99.90;;;;;;5065848;28;20052;-69
2023/04/30 09:07:44;;;;;;;20.53;8.07;;;11.80;99.90;;;;;;5065314;28;20435;-69
2023/04/30 09:10:20;;;;;;;18.27;9.00;;;12.00;99.90;;;;;;5064074;28;20095;-69
2023/04/30 09:13:03;;;;;;;20.77;8.80;;;12.10;99.90;;;;;;5062822;28;20061;-69
2023/04/30 09:15:30;;;;;;;18.98;7.57;;;12.20;99.90;;;;;;5063672;28;20036;-69
2023/04/30 09:18:28;;;;;;;18.38;7.35;;;12.30;99.90;;;;;;5063210;28;20054;-70
2023/04/30 09:21:02;;;;;;;13.55;6.88;;;12.30;99.90;;;;;;5049962;28;20616;-70
2023/04/30 09:23:28;;;;;;;13.50;9.27;;;12.50;99.90;;;;;;5061903;28;20053;-69
2023/04/30 09:25:59;;;;;;;14.90;6.95;;;12.60;99.90;;;;;;5064193;28;20047;-69
2023/04/30 09:28:27;;;;;;;19.02;7.60;;;12.70;99.90;;;;;;5066659;28;20059;-69
2023/04/30 09:30:56;;;;;;;17.90;7.55;;;12.50;99.90;;;;;;5067470;28;20144;-70
2023/04/30 09:33:22;;;;;;;14.63;6.93;;;12.50;99.90;;;;;;5067652;28;20036;-69
2023/04/30 09:35:48;;;;;;;20.33;8.02;;;12.60;99.90;;;;;;5065937;28;20044;-70
2023/04/30 09:38:30;;;;;;;19.90;6.80;;;12.90;99.90;;;;;;5065872;28;20971;-70
2023/04/30 09:41:01;;;;;;;24.85;6.95;;;13.20;98.30;;;;;;5063971;28;20493;-69
2023/04/30 09:43:27;;;;;;;13.60;5.88;;;13.40;95.90;;;;;;5064740;28;20040;-69
2023/04/30 09:45:58;;;;;;;15.38;6.68;;;13.70;96.30;;;;;;5065492;28;20760;-69
2023/04/30 09:48:26;;;;;;;13.63;7.53;;;13.80;92.70;;;;;;5068036;28;20051;-69
2023/04/30 09:50:52;;;;;;;9.55;5.85;;;13.80;92.50;;;;;;5098948;27;20483;-69
2023/04/30 09:53:19;;;;;;;10.63;6.57;;;13.80;91.40;;;;;;5071871;28;20075;-69
2023/04/30 09:55:47;;;;;;;19.80;7.50;;;14.10;92.30;;;;;;5078454;28;20056;-69
2023/04/30 09:58:13;;;;;;;8.32;6.07;;;14.20;90.10;;;;;;5082817;28;20040;-70
2023/04/30 10:00:40;;;;;;;9.50;6.60;;;14.20;87.40;;;;;;5084792;28;20044;-69
2023/04/30 10:03:08;;;;;;;10.15;6.68;;;14.20;87.60;;;;;;5082889;28;20048;-70
2023/04/30 10:05:38;;;;;;;17.00;7.75;;;14.30;91.20;;;;;;5085780;28;20036;-70
2023/04/30 10:08:12;;;;;;;11.13;6.13;;;14.60;89.30;;;;;;5088077;28;20490;-69
2023/04/30 10:10:42;;;;;;;11.18;5.88;;;14.70;88.50;;;;;;5084267;28;20489;-69
2023/04/30 10:13:13;;;;;;;13.30;6.50;;;14.70;85.60;;;;;;5080009;28;20051;-69
2023/04/30 10:15:44;;;;;;;9.00;6.30;;;14.60;84.60;;;;;;5083228;28;20040;-69
2023/04/30 10:18:19;;;;;;;13.38;6.97;;;14.60;85.60;;;;;;5102620;27;20123;-70
2023/04/30 10:20:47;;;;;;;17.30;6.00;;;14.50;82.90;;;;;;5076872;28;20402;-70
2023/04/30 10:23:14;;;;;;;11.57;5.93;;;14.50;83.60;;;;;;5084764;28;20044;-70
2023/04/30 10:25:40;;;;;;;10.77;5.88;;;14.50;82.20;;;;;;5080152;28;20048;-70
2023/04/30 10:28:07;;;;;;;9.80;5.78;;;14.60;83.50;;;;;;5085437;28;20093;-70
2023/04/30 10:30:34;;;;;;;8.35;5.35;;;14.60;81.00;;;;;;5083210;28;20035;-69
2023/04/30 10:33:12;;;;;;;11.93;6.60;;;14.60;79.90;;;;;;5083576;28;20044;-70
2023/04/30 10:35:45;;;;;;;14.00;6.45;;;14.80;81.50;;;;;;5079553;28;20097;-70
2023/04/30 10:38:23;;;;;;;12.18;5.90;;;14.90;76.70;;;;;;5084363;28;20036;-70
2023/04/30 10:40:50;;;;;;;14.77;7.35;;;15.00;80.20;;;;;;5082843;28;20048;-70
2023/04/30 10:43:20;;;;;;;10.65;7.13;;;15.10;82.30;;;;;;5080784;28;20131;-70
2023/04/30 10:45:47;;;;;;;18.02;7.30;;;15.40;79.60;;;;;;5079142;28;20561;-70
2023/04/30 10:48:14;;;;;;;14.02;8.40;;;15.30;79.00;;;;;;5072992;28;20469;-70
2023/04/30 10:50:42;;;;;;;17.07;7.03;;;15.30;81.50;;;;;;5081615;28;20074;-69
2023/04/30 10:53:14;;;;;;;15.20;7.28;;;15.30;81.30;;;;;;5084425;28;20505;-70
2023/04/30 10:55:50;;;;;;;13.45;7.80;;;15.20;79.50;;;;;;5087226;28;20079;-70
2023/04/30 10:58:44;;;;;;;13.10;6.88;;;15.20;80.20;;;;;;5080853;28;20117;-70
2023/04/30 11:01:16;;;;;;;10.93;6.45;;;15.30;79.50;;;;;;5057129;28;20142;-70
2023/04/30 11:04:02;;;;;;;11.35;7.25;;;15.40;80.10;;;;;;5086708;28;20044;-70
2023/04/30 11:06:53;;;;;;;11.38;6.10;;;15.40;79.00;;;;;;5079885;28;20094;-70
2023/04/30 11:09:40;;;;;;;10.70;7.03;;;15.70;82.90;;;;;;5077900;28;20059;-68
2023/04/30 11:12:11;;;;;;;13.77;6.80;;;15.90;79.70;;;;;;5067056;28;20064;-68
2023/04/30 11:14:42;;;;;;;16.70;7.45;;;15.60;79.70;;;;;;5087870;28;20044;-68
2023/04/30 11:17:20;;;;;;;8.98;6.00;;;15.60;77.90;;;;;;5088376;28;20053;-69
2023/04/30 11:19:47;;;;;;;11.95;6.85;;;15.70;79.50;;;;;;5081098;28;20036;-69
2023/04/30 11:22:16;;;;;;;15.27;8.07;;;16.00;79.70;;;;;;5078974;28;20048;-69
2023/04/30 11:24:53;;;;;;;13.15;7.43;;;16.00;79.90;;;;;;5081844;28;20048;-69
2023/04/30 11:27:27;;;;;;;13.63;6.85;;;15.90;76.10;;;;;;5064052;28;20051;-69
2023/04/30 11:29:54;;;;;;;12.40;8.13;;;16.00;77.90;;;;;;5078636;28;20075;-68
2023/04/30 11:32:21;;;;;;;10.90;6.95;;;16.20;79.00;;;;;;5090376;28;20426;-69
2023/04/30 11:34:48;;;;;;;11.02;7.28;;;16.10;76.40;;;;;;5069030;28;20048;-69
2023/04/30 11:37:20;;;;;;;6.95;5.80;;;15.90;75.50;;;;;;5078114;28;20036;-69
2023/04/30 11:39:47;;;;;;;9.00;6.15;;;15.90;77.40;;;;;;5087481;28;20044;-72
2023/04/30 11:42:20;;;;;;;10.55;6.38;;;16.00;77.80;;;;;;5082621;28;20127;-70
2023/04/30 11:44:46;;;;;;;9.32;6.53;;;16.00;77.10;;;;;;5088433;28;20132;-71
2023/04/30 11:47:15;;;;;;;8.73;6.55;;;15.70;76.10;;;;;;5089090;28;20048;-69
2023/04/30 11:49:43;;;;;;;11.60;7.25;;;15.60;77.30;;;;;;5088597;28;20050;-69
2023/04/30 11:52:12;;;;;;;13.77;7.15;;;15.50;78.20;;;;;;5087493;28;20098;-69
2023/04/30 11:54:38;;;;;;;10.18;6.90;;;15.60;78.90;;;;;;5081513;28;20063;-69
2023/04/30 11:57:04;;;;;;;9.77;6.45;;;16.00;78.50;;;;;;5089076;28;20353;-69
2023/04/30 11:59:31;;;;;;;7.30;5.32;;;16.10;77.70;;;;;;5082469;28;20048;-69
2023/04/30 12:01:57;;;;;;;9.18;6.55;;;16.30;76.30;;;;;;5066181;28;20054;-69
2023/04/30 12:04:23;;;;;;;8.88;6.00;;;16.10;75.60;;;;;;5084322;28;20409;-69
2023/04/30 12:06:49;;;;;;;10.98;5.97;;;15.80;75.50;;;;;;5088782;28;20513;-68
2023/04/30 12:09:15;;;;;;;8.57;6.30;;;15.70;76.10;;;;;;5090212;28;20060;-69
2023/04/30 12:11:40;;;;;;;7.85;5.53;;;15.60;76.40;;;;;;5093319;28;20036;-70
2023/04/30 12:14:11;;;;;;;10.77;5.28;;;15.60;76.20;;;;;;5084774;28;20548;-69
2023/04/30 12:16:44;;;;;;;8.88;5.22;;;15.70;77.60;;;;;;5079134;28;20071;-69
2023/04/30 12:19:10;;;;;;;10.00;6.18;;;16.20;78.00;;;;;;5082094;28;20378;-70
2023/04/30 12:21:37;;;;;;;10.52;6.78;;;16.50;76.90;;;;;;5081416;28;20068;-69
2023/04/30 12:24:03;;;;;;;7.95;6.03;;;16.50;74.10;;;;;;5082544;28;20048;-69
2023/04/30 12:26:37;;;;;;;13.65;6.32;;;16.50;73.40;;;;;;5076357;28;20079;-69
2023/04/30 12:29:08;;;;;;;9.80;5.68;;;16.60;72.40;;;;;;5086979;28;20067;-68
2023/04/30 12:31:33;;;;;;;6.80;5.60;;;16.50;72.50;;;;;;5079705;28;20119;-69
2023/04/30 12:34:09;;;;;;;12.85;6.72;;;16.40;72.90;;;;;;5085526;28;20163;-69
2023/04/30 12:36:37;;;;;;;11.43;6.78;;;16.50;73.00;;;;;;5080298;28;20086;-70
2023/04/30 12:39:07;;;;;;;9.80;6.60;;;16.60;72.50;;;;;;5071691;28;20052;-69
2023/04/30 12:41:41;;;;;;;7.50;6.35;;;16.70;72.50;;;;;;5079351;28;20083;-69
2023/04/30 12:44:23;;;;;;;10.98;6.07;;;16.60;71.70;;;;;;5087374;28;20040;-70